createdAt,value
2023-04-11T00:00:47.535Z,2.16
2023-04-11T00:01:47.586Z,2.60
2023-04-11T00:02:47.742Z,2.45
2023-04-11T00:03:47.631Z,2.63
2023-04-11T00:04:47.538Z,2.53
2023-04-11T00:05:47.536Z,2.67
2023-04-11T00:06:47.506Z,2.16
2023-04-11T00:07:47.511Z,2.50
2023-04-11T00:08:47.469Z,2.44
2023-04-11T00:09:47.476Z,2.66
2023-04-11T00:10:47.459Z,2.44
2023-04-11T00:11:47.491Z,2.79
2023-04-11T00:12:47.454Z,2.54
2023-04-11T00:13:47.457Z,2.73
2023-04-11T00:14:47.422Z,2.47
2023-04-11T00:15:47.463Z,3.01
2023-04-11T00:16:47.478Z,2.82
2023-04-11T00:17:47.465Z,2.49
2023-04-11T00:18:47.434Z,2.40
2023-04-11T00:19:47.392Z,2.58
2023-04-11T00:20:47.419Z,2.49
2023-04-11T00:21:47.400Z,2.57
2023-04-11T00:22:47.394Z,2.68
2023-04-11T00:23:47.390Z,2.09
2023-04-11T00:24:47.388Z,2.33
2023-04-11T00:25:47.356Z,2.48
2023-04-11T00:26:47.359Z,2.85
2023-04-11T00:27:47.384Z,2.77
2023-04-11T00:28:47.357Z,2.79
2023-04-11T00:29:47.349Z,2.22
2023-04-11T00:30:47.350Z,2.55
2023-04-11T00:31:47.412Z,2.47
2023-04-11T00:32:47.437Z,2.84
2023-04-11T00:33:47.489Z,2.64
2023-04-11T00:34:47.539Z,2.52
2023-04-11T00:35:47.624Z,2.53
2023-04-11T00:36:47.626Z,2.39
2023-04-11T00:37:47.675Z,2.39
2023-04-11T00:38:47.721Z,2.50
2023-04-11T00:39:47.764Z,2.53
2023-04-11T00:40:47.848Z,2.66
2023-04-11T00:41:47.886Z,2.79
2023-04-11T00:42:47.966Z,2.64
2023-04-11T00:43:47.960Z,2.50
2023-04-11T00:44:48.017Z,2.68
2023-04-11T00:45:48.105Z,1.96
2023-04-11T00:46:48.152Z,2.36
2023-04-11T00:47:48.254Z,2.79
2023-04-11T00:48:48.252Z,2.88
2023-04-11T00:49:48.310Z,2.80
2023-04-11T00:50:48.309Z,2.29
2023-04-11T00:51:48.385Z,2.57
2023-04-11T00:52:48.419Z,2.54
2023-04-11T00:53:48.562Z,2.68
2023-04-11T00:54:48.464Z,2.82
2023-04-11T00:55:48.491Z,2.65
2023-04-11T00:56:48.537Z,2.52
2023-04-11T00:57:48.556Z,2.37
2023-04-11T00:58:48.612Z,2.71
2023-04-11T00:59:48.644Z,2.47
2023-04-11T01:00:48.649Z,2.88
2023-04-11T01:01:48.748Z,2.69
2023-04-11T01:02:48.769Z,2.53
2023-04-11T01:03:48.868Z,2.53
2023-04-11T01:04:48.801Z,2.30
2023-04-11T01:05:48.883Z,2.20
2023-04-11T01:06:48.942Z,2.87
2023-04-11T01:07:48.957Z,2.67
2023-04-11T01:08:49.010Z,2.42
2023-04-11T01:09:49.066Z,2.61
2023-04-11T01:10:49.110Z,2.70
2023-04-11T01:11:49.187Z,1.99
2023-04-11T01:12:49.209Z,2.46
2023-04-11T01:13:49.301Z,2.11
2023-04-11T01:14:49.306Z,2.56
2023-04-11T01:15:49.355Z,2.61
2023-04-11T01:16:49.447Z,2.44
2023-04-11T01:17:49.501Z,2.32
2023-04-11T01:18:49.530Z,2.44
2023-04-11T01:19:49.598Z,2.40
2023-04-11T01:20:49.636Z,2.47
2023-04-11T01:21:49.713Z,2.54
2023-04-11T01:22:49.766Z,2.37
2023-04-11T01:23:49.774Z,2.55
2023-04-11T01:24:49.845Z,2.68
2023-04-11T01:25:49.946Z,2.69
2023-04-11T01:26:50.014Z,2.67
2023-04-11T01:27:50.033Z,2.78
2023-04-11T01:28:50.089Z,2.61
2023-04-11T01:29:50.145Z,2.42
2023-04-11T01:30:50.221Z,2.48
2023-04-11T01:31:50.228Z,2.44
2023-04-11T01:32:50.315Z,2.85
2023-04-11T01:33:50.341Z,2.55
2023-04-11T01:34:50.418Z,2.40
2023-04-11T01:35:50.517Z,2.37
2023-04-11T01:36:50.495Z,2.74
2023-04-11T01:37:50.543Z,2.69
2023-04-11T01:38:50.624Z,2.28
2023-04-11T01:39:50.705Z,2.28
2023-04-11T01:40:50.749Z,2.16
2023-04-11T01:41:50.824Z,3.10
2023-04-11T01:42:50.862Z,2.54
2023-04-11T01:43:50.888Z,2.63
2023-04-11T01:44:50.927Z,2.40
2023-04-11T01:45:51.032Z,2.51
2023-04-11T01:46:51.085Z,2.53
2023-04-11T01:47:51.209Z,2.38
2023-04-11T01:48:51.197Z,2.86
2023-04-11T01:49:51.241Z,2.18
2023-04-11T01:50:51.292Z,2.54
2023-04-11T01:51:51.361Z,2.45
2023-04-11T01:52:51.406Z,2.33
2023-04-11T01:53:51.467Z,2.61
2023-04-11T01:54:51.514Z,2.48
2023-04-11T01:55:51.547Z,2.37
2023-04-11T01:56:51.647Z,2.60
2023-04-11T01:57:51.667Z,2.35
2023-04-11T01:58:51.756Z,2.57
2023-04-11T01:59:51.778Z,2.35
2023-04-11T02:00:51.857Z,2.86
2023-04-11T02:01:51.964Z,2.55
2023-04-11T02:02:52.110Z,2.33
2023-04-11T02:03:52.065Z,2.51
2023-04-11T02:04:52.103Z,2.56
2023-04-11T02:05:52.122Z,2.31
2023-04-11T02:06:52.217Z,2.33
2023-04-11T02:07:52.262Z,2.21
2023-04-11T02:08:52.450Z,3.07
2023-04-11T02:09:52.325Z,2.85
2023-04-11T02:10:52.405Z,2.51
2023-04-11T02:11:52.449Z,2.69
2023-04-11T02:12:52.517Z,2.29
2023-04-11T02:13:52.564Z,2.07
2023-04-11T02:14:52.603Z,2.84
2023-04-11T02:15:52.762Z,2.69
2023-04-11T02:16:52.746Z,2.53
2023-04-11T02:17:52.821Z,2.90
2023-04-11T02:18:52.829Z,2.64
2023-04-11T02:19:52.879Z,2.64
2023-04-11T02:20:52.921Z,2.56
2023-04-11T02:21:52.967Z,2.40
2023-04-11T02:22:53.036Z,2.56
2023-04-11T02:23:53.068Z,2.59
2023-04-11T02:24:53.148Z,2.51
2023-04-11T02:25:53.293Z,2.68
2023-04-11T02:26:53.258Z,2.34
2023-04-11T02:27:53.325Z,2.99
2023-04-11T02:28:53.467Z,2.42
2023-04-11T02:29:53.456Z,2.32
2023-04-11T02:30:53.514Z,2.24
2023-04-11T02:31:53.609Z,2.49
2023-04-11T02:32:53.624Z,2.71
2023-04-11T02:33:53.667Z,2.27
2023-04-11T02:34:53.673Z,2.68
2023-04-11T02:35:53.774Z,2.37
2023-04-11T02:36:53.761Z,2.50
2023-04-11T02:37:53.828Z,2.33
2023-04-11T02:38:54.067Z,2.62
2023-04-11T02:39:53.926Z,2.50
2023-04-11T02:40:54.005Z,2.62
2023-04-11T02:41:54.060Z,2.40
2023-04-11T02:42:54.094Z,2.36
2023-04-11T02:43:54.135Z,2.12
2023-04-11T02:44:54.187Z,2.24
2023-04-11T02:45:59.236Z,2.65
2023-04-11T02:46:55.311Z,2.64
2023-04-11T02:47:54.311Z,2.64
2023-04-11T02:48:54.412Z,2.39
2023-04-11T02:49:54.229Z,2.32
2023-04-11T02:50:54.239Z,2.41
2023-04-11T02:51:54.242Z,2.50
2023-04-11T02:52:54.206Z,2.09
2023-04-11T02:53:54.198Z,2.47
2023-04-11T02:54:54.210Z,2.54
2023-04-11T02:55:54.240Z,2.20
2023-04-11T02:56:54.315Z,3.08
2023-04-11T02:57:54.344Z,2.47
2023-04-11T02:58:54.780Z,2.82
2023-04-11T02:59:54.499Z,2.80
2023-04-11T03:00:54.549Z,2.69
2023-04-11T03:01:54.668Z,2.65
2023-04-11T03:02:54.698Z,2.25
2023-04-11T03:03:54.733Z,2.17
2023-04-11T03:04:54.736Z,2.49
2023-04-11T03:05:54.858Z,2.22
2023-04-11T03:06:54.866Z,2.34
2023-04-11T03:07:54.934Z,2.49
2023-04-11T03:08:55.205Z,1.92
2023-04-11T03:09:55.010Z,2.48
2023-04-11T03:10:55.098Z,2.33
2023-04-11T03:11:55.153Z,2.74
2023-04-11T03:12:55.174Z,2.16
2023-04-11T03:13:55.260Z,2.41
2023-04-11T03:14:55.337Z,2.29
2023-04-11T03:15:55.427Z,2.14
2023-04-11T03:16:55.416Z,2.70
2023-04-11T03:17:55.511Z,2.57
2023-04-11T03:18:55.645Z,2.53
2023-04-11T03:19:55.609Z,2.71
2023-04-11T03:20:55.645Z,2.90
2023-04-11T03:21:55.696Z,2.41
2023-04-11T03:22:55.752Z,2.84
2023-04-11T03:23:55.812Z,2.08
2023-04-11T03:24:55.864Z,2.57
2023-04-11T03:25:55.959Z,2.58
2023-04-11T03:26:56.003Z,2.61
2023-04-11T03:27:56.052Z,2.47
2023-04-11T03:28:56.265Z,2.19
2023-04-11T03:29:56.206Z,2.34
2023-04-11T03:30:56.231Z,2.37
2023-04-11T03:31:56.302Z,2.52
2023-04-11T03:32:56.401Z,3.11
2023-04-11T03:33:56.403Z,2.42
2023-04-11T03:34:56.455Z,2.22
2023-04-11T03:35:56.632Z,2.58
2023-04-11T03:36:56.602Z,2.30
2023-04-11T03:37:56.651Z,2.61
2023-04-11T03:38:56.794Z,2.18
2023-04-11T03:39:56.789Z,2.51
2023-04-11T03:40:56.789Z,2.19
2023-04-11T03:41:56.895Z,2.24
2023-04-11T03:42:56.925Z,2.64
2023-04-11T03:43:57.006Z,2.39
2023-04-11T03:44:57.043Z,2.88
2023-04-11T03:45:57.119Z,2.80
2023-04-11T03:46:57.252Z,2.54
2023-04-11T03:47:57.276Z,2.57
2023-04-11T03:48:57.553Z,2.15
2023-04-11T03:49:57.348Z,2.62
2023-04-11T03:50:57.389Z,2.49
2023-04-11T03:51:57.472Z,2.25
2023-04-11T03:52:57.522Z,2.40
2023-04-11T03:53:57.552Z,2.23
2023-04-11T03:54:57.651Z,2.60
2023-04-11T03:55:57.701Z,2.75
2023-04-11T03:56:57.761Z,2.52
2023-04-11T03:57:57.828Z,2.59
2023-04-11T03:58:57.960Z,2.23
2023-04-11T03:59:57.963Z,2.42
2023-04-11T04:00:58.022Z,2.52
2023-04-11T04:01:58.199Z,2.54
2023-04-11T04:02:58.277Z,2.66
2023-04-11T04:03:58.616Z,2.39
2023-04-11T04:04:58.199Z,2.54
2023-04-11T04:05:58.249Z,2.20
2023-04-11T04:06:58.337Z,2.48
2023-04-11T04:07:58.392Z,2.65
2023-04-11T04:08:58.460Z,2.61
2023-04-11T04:09:58.487Z,2.05
2023-04-11T04:10:58.536Z,2.58
2023-04-11T04:11:58.626Z,2.36
2023-04-11T04:12:58.640Z,2.64
2023-04-11T04:13:58.822Z,2.38
2023-04-11T04:14:58.821Z,2.38
2023-04-11T04:15:59.587Z,2.64
2023-04-11T04:16:58.920Z,2.61
2023-04-11T04:17:58.950Z,2.36
2023-04-11T04:18:58.981Z,2.14
2023-04-11T04:19:59.052Z,2.55
2023-04-11T04:20:59.075Z,2.21
2023-04-11T04:21:59.119Z,2.34
2023-04-11T04:22:59.256Z,2.22
2023-04-11T04:23:59.236Z,2.72
2023-04-11T04:24:59.301Z,2.21
2023-04-11T04:25:59.378Z,2.75
2023-04-11T04:26:59.424Z,2.40
2023-04-11T04:27:59.473Z,2.25
2023-04-11T04:28:59.547Z,2.25
2023-04-11T04:30:03.943Z,2.31
2023-04-11T04:31:00.591Z,2.42
2023-04-11T04:31:59.605Z,2.68
2023-04-11T04:32:59.615Z,2.87
2023-04-11T04:33:59.567Z,2.49
2023-04-11T04:34:59.557Z,2.91
2023-04-11T04:35:59.623Z,2.17
2023-04-11T04:36:59.575Z,2.60
2023-04-11T04:37:59.543Z,2.31
2023-04-11T04:38:59.531Z,2.70
2023-04-11T04:39:59.581Z,3.19
2023-04-11T04:40:59.663Z,2.51
2023-04-11T04:41:59.714Z,2.48
2023-04-11T04:42:59.778Z,2.36
2023-04-11T04:43:59.829Z,2.80
2023-04-11T04:44:59.874Z,2.14
2023-04-11T04:45:59.975Z,2.49
2023-04-11T04:46:59.996Z,2.20
2023-04-11T04:48:00.100Z,3.04
2023-04-11T04:49:02.204Z,2.86
2023-04-11T04:50:00.201Z,2.34
2023-04-11T04:51:00.238Z,2.30
2023-04-11T04:52:00.322Z,3.13
2023-04-11T04:53:00.324Z,2.29
2023-04-11T04:54:00.433Z,2.74
2023-04-11T04:55:00.692Z,2.38
2023-04-11T04:56:00.494Z,2.32
2023-04-11T04:57:00.618Z,2.83
2023-04-11T04:58:00.629Z,2.50
2023-04-11T04:59:00.673Z,2.42
2023-04-11T05:00:00.745Z,2.48
2023-04-11T05:01:00.802Z,2.54
2023-04-11T05:02:00.936Z,2.48
2023-04-11T05:03:01.014Z,2.54
2023-04-11T05:04:01.489Z,2.79
2023-04-11T05:05:01.031Z,2.91
2023-04-11T05:06:01.145Z,2.38
2023-04-11T05:07:01.204Z,2.50
2023-04-11T05:08:01.255Z,2.43
2023-04-11T05:09:01.324Z,2.90
2023-04-11T05:10:01.482Z,2.61
2023-04-11T05:11:01.416Z,2.51
2023-04-11T05:12:01.554Z,2.53
2023-04-11T05:13:01.546Z,2.53
2023-04-11T05:14:01.615Z,2.94
2023-04-11T05:15:01.622Z,2.59
2023-04-11T05:16:01.666Z,2.51
2023-04-11T05:17:01.791Z,2.46
2023-04-11T05:18:01.815Z,2.51
2023-04-11T05:19:01.939Z,2.41
2023-04-11T05:20:01.911Z,2.32
2023-04-11T05:21:02.009Z,2.83
2023-04-11T05:22:02.060Z,2.41
2023-04-11T05:23:02.076Z,2.58
2023-04-11T05:24:02.138Z,2.87
2023-04-11T05:25:02.268Z,2.25
2023-04-11T05:26:02.246Z,2.61
2023-04-11T05:27:02.381Z,2.34
2023-04-11T05:28:02.458Z,2.60
2023-04-11T05:29:02.485Z,2.62
2023-04-11T05:30:02.515Z,2.83
2023-04-11T05:31:02.617Z,2.70
2023-04-11T05:32:02.694Z,2.50
2023-04-11T05:33:02.691Z,2.77
2023-04-11T05:34:02.765Z,3.00
2023-04-11T05:35:02.834Z,2.95
2023-04-11T05:36:02.943Z,3.07
2023-04-11T05:37:03.250Z,3.02
2023-04-11T05:38:03.018Z,2.55
2023-04-11T05:39:03.066Z,2.47
2023-04-11T05:40:04.732Z,2.90
2023-04-11T05:41:04.213Z,2.55
2023-04-11T05:42:03.232Z,2.80
2023-04-11T05:43:03.304Z,3.99
2023-04-11T05:44:03.468Z,3.98
2023-04-11T05:45:03.318Z,4.12
2023-04-11T05:46:10.344Z,4.75
2023-04-11T05:47:03.746Z,4.18
2023-04-11T05:48:03.369Z,4.35
2023-04-11T05:49:03.359Z,4.96
2023-04-11T05:50:03.330Z,4.47
2023-04-11T05:51:03.311Z,4.29
2023-04-11T05:52:03.273Z,3.47
2023-04-11T05:53:03.774Z,3.15
2023-04-11T05:54:03.284Z,3.81
2023-04-11T05:55:03.305Z,3.89
2023-04-11T05:56:03.356Z,3.38
2023-04-11T05:57:03.405Z,3.44
2023-04-11T05:58:03.756Z,3.68
2023-04-11T05:59:04.224Z,3.60
2023-04-11T06:00:03.420Z,3.30
2023-04-11T06:01:03.431Z,3.79
2023-04-11T06:02:03.547Z,3.72
2023-04-11T06:03:03.558Z,3.26
2023-04-11T06:04:03.654Z,3.45
2023-04-11T06:05:04.240Z,3.24
2023-04-11T06:06:03.494Z,3.81
2023-04-11T06:07:03.527Z,3.86
2023-04-11T06:08:03.524Z,3.54
2023-04-11T06:09:03.550Z,4.15
2023-04-11T06:10:03.575Z,4.02
2023-04-11T06:11:03.588Z,3.69
2023-04-11T06:12:03.596Z,3.85
2023-04-11T06:13:03.591Z,3.58
2023-04-11T06:14:03.591Z,3.73
2023-04-11T06:15:03.647Z,3.37
2023-04-11T06:16:03.685Z,4.18
2023-04-11T06:17:03.640Z,3.30
2023-04-11T06:18:03.658Z,3.40
2023-04-11T06:19:03.674Z,3.46
2023-04-11T06:20:05.464Z,4.41
2023-04-11T06:21:03.662Z,4.02
2023-04-11T06:22:03.668Z,3.78
2023-04-11T06:23:03.676Z,4.26
2023-04-11T06:24:03.670Z,3.85
2023-04-11T06:25:03.676Z,3.54
2023-04-11T06:26:03.640Z,3.29
2023-04-11T06:27:03.646Z,3.77
2023-04-11T06:28:03.809Z,3.87
2023-04-11T06:29:03.718Z,4.03
2023-04-11T06:30:03.758Z,3.68
2023-04-11T06:31:03.859Z,3.83
2023-04-11T06:32:03.728Z,3.44
2023-04-11T06:33:03.810Z,3.58
2023-04-11T06:34:03.807Z,3.56
2023-04-11T06:35:03.869Z,3.67
2023-04-11T06:36:05.997Z,4.26
2023-04-11T06:37:03.995Z,3.64
2023-04-11T06:38:04.038Z,3.99
2023-04-11T06:39:04.092Z,3.27
2023-04-11T06:40:04.174Z,3.39
2023-04-11T06:41:04.188Z,3.98
2023-04-11T06:42:04.267Z,3.80
2023-04-11T06:43:04.793Z,4.50
2023-04-11T06:44:04.319Z,4.56
2023-04-11T06:45:04.287Z,4.55
2023-04-11T06:46:04.299Z,4.44
2023-04-11T06:47:04.342Z,4.27
2023-04-11T06:48:04.919Z,4.83
2023-04-11T06:49:04.488Z,4.46
2023-04-11T06:50:04.300Z,4.49
2023-04-11T06:51:05.289Z,4.93
2023-04-11T06:52:05.316Z,4.19
2023-04-11T06:53:04.335Z,4.66
2023-04-11T06:54:04.303Z,5.50
2023-04-11T06:55:04.305Z,5.20
2023-04-11T06:56:04.302Z,5.21
2023-04-11T06:57:04.313Z,5.60
2023-04-11T06:58:04.747Z,4.93
2023-04-11T06:59:04.276Z,5.07
2023-04-11T07:00:04.278Z,4.35
2023-04-11T07:01:04.490Z,5.19
2023-04-11T07:02:04.324Z,5.04
2023-04-11T07:03:04.381Z,5.73
2023-04-11T07:04:04.300Z,4.53
2023-04-11T07:05:04.265Z,6.14
2023-04-11T07:06:04.216Z,3.98
2023-04-11T07:07:04.229Z,4.13
2023-04-11T07:08:04.214Z,5.49
2023-04-11T07:09:04.244Z,5.00
2023-04-11T07:10:04.207Z,4.85
2023-04-11T07:11:04.203Z,4.02
2023-04-11T07:12:04.228Z,5.24
2023-04-11T07:13:04.230Z,4.06
2023-04-11T07:14:04.177Z,4.94
2023-04-11T07:15:04.211Z,4.17
2023-04-11T07:16:04.241Z,5.05
2023-04-11T07:17:04.223Z,4.43
2023-04-11T07:18:04.128Z,4.84
2023-04-11T07:19:04.128Z,4.70
2023-04-11T07:20:04.132Z,4.56
2023-04-11T07:21:04.111Z,4.73
2023-04-11T07:22:04.130Z,4.82
2023-04-11T07:23:04.258Z,4.75
2023-04-11T07:24:04.082Z,5.02
2023-04-11T07:25:04.076Z,5.05
2023-04-11T07:26:04.100Z,4.34
2023-04-11T07:27:04.110Z,4.98
2023-04-11T07:28:04.095Z,4.62
2023-04-11T07:29:04.101Z,4.77
2023-04-11T07:30:04.094Z,4.74
2023-04-11T07:31:04.153Z,4.21
2023-04-11T07:32:04.186Z,4.34
2023-04-11T07:33:04.300Z,4.06
2023-04-11T07:34:04.079Z,4.62
2023-04-11T07:35:04.140Z,4.34
2023-04-11T07:36:04.256Z,4.11
2023-04-11T07:37:04.235Z,4.58
2023-04-11T07:38:04.301Z,4.42
2023-04-11T07:39:04.377Z,4.80
2023-04-11T07:40:05.280Z,4.60
2023-04-11T07:41:04.526Z,5.49
2023-04-11T07:42:04.494Z,5.34
2023-04-11T07:43:04.740Z,5.27
2023-04-11T07:44:04.551Z,4.98
2023-04-11T07:45:04.609Z,5.09
2023-04-11T07:46:04.545Z,5.88
2023-04-11T07:47:04.551Z,5.90
2023-04-11T07:48:04.588Z,5.06
2023-04-11T07:49:04.583Z,4.74
2023-04-11T07:50:04.535Z,5.11
2023-04-11T07:51:04.545Z,4.67
2023-04-11T07:52:04.533Z,4.61
2023-04-11T07:53:04.515Z,4.52
2023-04-11T07:54:04.538Z,5.46
2023-04-11T07:55:04.536Z,3.92
2023-04-11T07:56:04.508Z,5.04
2023-04-11T07:57:04.546Z,5.50
2023-04-11T07:58:04.515Z,4.55
2023-04-11T07:59:04.499Z,4.49
2023-04-11T08:00:04.537Z,5.97
2023-04-11T08:01:04.528Z,5.04
2023-04-11T08:02:04.671Z,4.28
2023-04-11T08:03:04.642Z,5.04
2023-04-11T08:04:05.059Z,5.73
2023-04-11T08:05:04.712Z,4.45
2023-04-11T08:06:04.482Z,4.38
2023-04-11T08:07:04.522Z,3.00
2023-04-11T08:08:04.527Z,4.32
2023-04-11T08:09:04.535Z,4.99
2023-04-11T08:10:04.526Z,4.72
2023-04-11T08:11:04.530Z,4.88
2023-04-11T08:12:04.569Z,4.61
2023-04-11T08:13:04.526Z,4.15
2023-04-11T08:14:04.502Z,4.94
2023-04-11T08:15:04.580Z,4.84
2023-04-11T08:16:04.514Z,5.83
2023-04-11T08:17:09.980Z,4.63
2023-04-11T08:18:05.575Z,4.51
2023-04-11T08:19:04.505Z,5.32
2023-04-11T08:20:04.506Z,5.10
2023-04-11T08:21:04.517Z,5.02
2023-04-11T08:22:04.466Z,5.02
2023-04-11T08:23:05.921Z,5.39
2023-04-11T08:24:04.473Z,4.99
2023-04-11T08:25:04.494Z,4.92
2023-04-11T08:26:04.447Z,4.76
2023-04-11T08:27:04.447Z,4.91
2023-04-11T08:28:04.412Z,5.45
2023-04-11T08:29:04.476Z,4.51
2023-04-11T08:30:04.469Z,5.23
2023-04-11T08:31:04.530Z,4.76
2023-04-11T08:32:04.459Z,3.75
2023-04-11T08:33:04.423Z,4.11
2023-04-11T08:34:06.911Z,3.93
2023-04-11T08:35:04.406Z,4.37
2023-04-11T08:36:04.432Z,4.61
2023-04-11T08:37:04.417Z,4.47
2023-04-11T08:38:04.427Z,3.17
2023-04-11T08:39:04.432Z,4.73
2023-04-11T08:40:04.444Z,4.51
2023-04-11T08:41:04.399Z,4.13
2023-04-11T08:42:04.401Z,4.21
2023-04-11T08:43:04.355Z,4.56
2023-04-11T08:44:04.793Z,4.59
2023-04-11T08:45:04.344Z,4.57
2023-04-11T08:46:04.397Z,4.51
2023-04-11T08:47:04.407Z,4.77
2023-04-11T08:48:04.428Z,4.74
2023-04-11T08:49:04.320Z,3.81
2023-04-11T08:50:04.344Z,3.56
2023-04-11T08:51:04.308Z,4.78
2023-04-11T08:52:04.317Z,4.24
2023-04-11T08:53:04.341Z,4.45
2023-04-11T08:54:04.281Z,4.68
2023-04-11T08:55:04.292Z,4.51
2023-04-11T08:56:04.302Z,5.13
2023-04-11T08:57:04.306Z,4.77
2023-04-11T08:58:04.269Z,4.86
2023-04-11T08:59:04.266Z,5.24
2023-04-11T09:00:04.349Z,4.52
2023-04-11T09:01:04.520Z,4.51
2023-04-11T09:02:04.408Z,4.80
2023-04-11T09:03:04.342Z,4.36
2023-04-11T09:04:05.841Z,4.99
2023-04-11T09:05:04.255Z,4.72
2023-04-11T09:06:04.329Z,4.79
2023-04-11T09:07:04.214Z,3.06
2023-04-11T09:08:04.224Z,4.68
2023-04-11T09:09:04.196Z,5.13
2023-04-11T09:10:04.244Z,4.72
2023-04-11T09:11:04.806Z,4.50
2023-04-11T09:12:04.220Z,5.46
2023-04-11T09:13:04.301Z,5.09
2023-04-11T09:14:04.213Z,4.14
2023-04-11T09:15:04.130Z,4.63
2023-04-11T09:16:04.225Z,5.14
2023-04-11T09:17:04.126Z,4.13
2023-04-11T09:18:04.210Z,5.05
2023-04-11T09:19:04.313Z,3.78
2023-04-11T09:20:04.146Z,4.55
2023-04-11T09:21:04.143Z,4.57
2023-04-11T09:22:04.170Z,4.99
2023-04-11T09:23:04.091Z,4.34
2023-04-11T09:24:04.116Z,4.67
2023-04-11T09:25:04.087Z,4.73
2023-04-11T09:26:04.096Z,4.58
2023-04-11T09:27:04.102Z,4.90
2023-04-11T09:28:04.061Z,5.62
2023-04-11T09:29:04.074Z,4.92
2023-04-11T09:30:04.086Z,4.77
2023-04-11T09:31:04.111Z,5.28
2023-04-11T09:32:04.021Z,5.09
2023-04-11T09:33:04.070Z,4.82
2023-04-11T09:34:04.052Z,4.09
2023-04-11T09:35:04.008Z,5.17
2023-04-11T09:36:04.087Z,5.38
2023-04-11T09:37:04.024Z,5.56
2023-04-11T09:38:04.118Z,5.12
2023-04-11T09:39:04.040Z,3.86
2023-04-11T09:40:05.747Z,4.73
2023-04-11T09:41:04.154Z,4.52
2023-04-11T09:42:04.087Z,5.61
2023-04-11T09:43:04.171Z,5.10
2023-04-11T09:44:04.146Z,4.80
2023-04-11T09:45:04.222Z,4.69
2023-04-11T09:46:04.265Z,5.45
2023-04-11T09:47:04.319Z,5.17
2023-04-11T09:48:04.275Z,5.01
2023-04-11T09:49:04.606Z,5.61
2023-04-11T09:50:04.342Z,5.62
2023-04-11T09:51:04.382Z,6.56
2023-04-11T09:52:04.416Z,5.72
2023-04-11T09:53:04.479Z,5.49
2023-04-11T09:54:05.243Z,5.78
2023-04-11T09:55:04.566Z,5.83
2023-04-11T09:56:04.620Z,5.20
2023-04-11T09:57:05.345Z,4.99
2023-04-11T09:58:04.675Z,5.33
2023-04-11T09:59:05.104Z,5.60
2023-04-11T10:00:04.832Z,5.52
2023-04-11T10:01:04.900Z,5.56
2023-04-11T10:02:04.961Z,5.72
2023-04-11T10:03:05.047Z,5.75
2023-04-11T10:04:04.997Z,5.40
2023-04-11T10:05:05.093Z,4.86
2023-04-11T10:06:05.149Z,5.76
2023-04-11T10:07:05.169Z,5.30
2023-04-11T10:08:05.262Z,5.38
2023-04-11T10:09:05.297Z,5.17
2023-04-11T10:10:05.460Z,5.88
2023-04-11T10:11:05.405Z,5.15
2023-04-11T10:12:05.464Z,5.37
2023-04-11T10:13:05.546Z,5.13
2023-04-11T10:14:05.594Z,4.36
2023-04-11T10:15:05.848Z,5.69
2023-04-11T10:16:05.809Z,5.99
2023-04-11T10:17:05.762Z,5.12
2023-04-11T10:18:05.873Z,4.84
2023-04-11T10:19:05.831Z,5.13
2023-04-11T10:20:05.892Z,5.28
2023-04-11T10:21:05.925Z,5.45
2023-04-11T10:22:05.953Z,4.73
2023-04-11T10:23:05.994Z,5.84
2023-04-11T10:24:06.014Z,5.51
2023-04-11T10:25:06.090Z,6.19
2023-04-11T10:26:06.078Z,6.00
2023-04-11T10:27:06.058Z,5.61
2023-04-11T10:28:06.057Z,5.79
2023-04-11T10:29:06.104Z,5.40
2023-04-11T10:30:06.106Z,5.39
2023-04-11T10:31:06.133Z,5.24
2023-04-11T10:32:06.140Z,5.53
2023-04-11T10:33:07.874Z,5.17
2023-04-11T10:34:06.096Z,5.69
2023-04-11T10:35:06.126Z,5.78
2023-04-11T10:36:06.200Z,6.38
2023-04-11T10:37:06.167Z,5.66
2023-04-11T10:38:06.207Z,5.16
2023-04-11T10:39:06.168Z,4.80
2023-04-11T10:40:06.201Z,4.05
2023-04-11T10:41:06.156Z,4.40
2023-04-11T10:42:06.156Z,4.88
2023-04-11T10:43:06.238Z,4.32
2023-04-11T10:44:06.295Z,4.30
2023-04-11T10:45:06.369Z,3.92
2023-04-11T10:46:06.369Z,4.35
2023-04-11T10:47:06.498Z,4.88
2023-04-11T10:48:06.587Z,4.78
2023-04-11T10:49:06.544Z,4.83
2023-04-11T10:50:06.895Z,4.52
2023-04-11T10:51:06.601Z,4.23
2023-04-11T10:52:06.733Z,4.64
2023-04-11T10:53:06.745Z,3.76
2023-04-11T10:54:06.773Z,3.83
2023-04-11T10:55:06.783Z,4.50
2023-04-11T10:56:06.792Z,4.49
2023-04-11T10:57:06.909Z,4.84
2023-04-11T10:58:06.908Z,4.23
2023-04-11T10:59:06.947Z,3.67
2023-04-11T11:00:06.977Z,3.77
2023-04-11T11:01:07.069Z,4.46
2023-04-11T11:02:07.065Z,4.18
2023-04-11T11:03:07.155Z,3.58
2023-04-11T11:04:07.645Z,3.54
2023-04-11T11:05:07.186Z,4.26
2023-04-11T11:06:07.160Z,3.55
2023-04-11T11:07:07.233Z,3.19
2023-04-11T11:08:07.253Z,3.66
2023-04-11T11:09:07.278Z,3.53
2023-04-11T11:10:07.288Z,3.34
2023-04-11T11:11:07.374Z,3.76
2023-04-11T11:12:07.465Z,3.62
2023-04-11T11:13:07.368Z,2.76
2023-04-11T11:14:07.364Z,3.29
2023-04-11T11:15:07.888Z,3.29
2023-04-11T11:16:07.429Z,3.39
2023-04-11T11:17:07.637Z,3.73
2023-04-11T11:18:07.495Z,3.53
2023-04-11T11:19:07.450Z,3.29
2023-04-11T11:20:07.469Z,3.48
2023-04-11T11:21:11.270Z,3.25
2023-04-11T11:22:08.526Z,2.93
2023-04-11T11:23:07.482Z,2.94
2023-04-11T11:24:07.488Z,2.78
2023-04-11T11:25:07.876Z,2.74
2023-04-11T11:26:07.469Z,2.72
2023-04-11T11:27:07.527Z,3.20
2023-04-11T11:28:07.457Z,2.48
2023-04-11T11:29:07.410Z,2.95
2023-04-11T11:30:07.898Z,3.64
2023-04-11T11:31:07.399Z,2.67
2023-04-11T11:32:07.534Z,2.71
2023-04-11T11:33:07.442Z,2.97
2023-04-11T11:34:22.308Z,2.85
2023-04-11T11:35:08.891Z,2.97
2023-04-11T11:36:07.356Z,3.07
2023-04-11T11:37:07.396Z,2.96
2023-04-11T11:38:07.385Z,2.43
2023-04-11T11:39:07.344Z,2.89
2023-04-11T11:40:07.352Z,2.74
2023-04-11T11:41:07.357Z,2.83
2023-04-11T11:42:07.324Z,2.80
2023-04-11T11:43:07.326Z,3.14
2023-04-11T11:44:07.313Z,2.64
2023-04-11T11:45:07.343Z,3.02
2023-04-11T11:46:08.477Z,3.21
2023-04-11T11:47:07.267Z,3.54
2023-04-11T11:48:07.313Z,2.75
2023-04-11T11:49:07.332Z,2.47
2023-04-11T11:50:07.319Z,3.00
2023-04-11T11:51:07.254Z,2.67
2023-04-11T11:52:07.274Z,2.72
2023-04-11T11:53:07.288Z,2.53
2023-04-11T11:54:07.248Z,3.16
2023-04-11T11:55:10.422Z,2.65
2023-04-11T11:56:07.292Z,2.95
2023-04-11T11:57:07.859Z,2.00
2023-04-11T11:58:07.301Z,3.85
2023-04-11T11:59:07.259Z,2.39
2023-04-11T12:00:07.262Z,2.43
2023-04-11T12:01:07.378Z,2.30
2023-04-11T12:02:07.308Z,2.42
2023-04-11T12:03:07.306Z,2.61
2023-04-11T12:04:07.256Z,2.87
2023-04-11T12:05:07.422Z,2.63
2023-04-11T12:06:07.205Z,2.89
2023-04-11T12:07:07.217Z,2.87
2023-04-11T12:08:07.184Z,2.70
2023-04-11T12:09:07.182Z,2.82
2023-04-11T12:10:07.187Z,3.50
2023-04-11T12:11:07.191Z,2.63
2023-04-11T12:12:07.172Z,2.81
2023-04-11T12:13:07.200Z,2.52
2023-04-11T12:14:07.160Z,2.77
2023-04-11T12:15:07.164Z,2.67
2023-04-11T12:16:07.229Z,2.58
2023-04-11T12:17:07.147Z,2.54
2023-04-11T12:18:07.200Z,2.75
2023-04-11T12:19:07.142Z,2.78
2023-04-11T12:20:07.167Z,2.72
2023-04-11T12:21:07.187Z,3.04
2023-04-11T12:22:07.146Z,2.74
2023-04-11T12:23:07.108Z,2.84
2023-04-11T12:24:07.082Z,2.65
2023-04-11T12:25:07.096Z,2.69
2023-04-11T12:26:07.085Z,3.14
2023-04-11T12:27:08.045Z,3.24
2023-04-11T12:28:07.068Z,3.13
2023-04-11T12:29:07.090Z,2.37
2023-04-11T12:30:07.070Z,2.62
2023-04-11T12:31:07.177Z,2.70
2023-04-11T12:32:07.075Z,2.28
2023-04-11T12:33:07.059Z,2.66
2023-04-11T12:34:07.003Z,2.60
2023-04-11T12:35:07.038Z,2.22
2023-04-11T12:36:06.996Z,2.19
2023-04-11T12:37:07.019Z,2.42
2023-04-11T12:38:07.020Z,2.39
2023-04-11T12:39:07.006Z,2.80
2023-04-11T12:40:07.033Z,2.85
2023-04-11T12:41:30.330Z,2.34
2023-04-11T12:42:08.665Z,2.81
2023-04-11T12:43:06.996Z,2.80
2023-04-11T12:44:06.988Z,2.41
2023-04-11T12:45:06.969Z,2.33
2023-04-11T12:46:07.006Z,2.34
2023-04-11T12:47:07.000Z,2.27
2023-04-11T12:48:06.991Z,2.27
2023-04-11T12:49:06.933Z,2.70
2023-04-11T12:50:06.936Z,2.17
2023-04-11T12:51:06.946Z,2.11
2023-04-11T12:52:06.913Z,2.37
2023-04-11T12:53:06.985Z,2.26
2023-04-11T12:54:06.932Z,2.42
2023-04-11T12:55:06.896Z,2.58
2023-04-11T12:56:06.913Z,2.84
2023-04-11T12:57:06.883Z,2.76
2023-04-11T12:58:06.891Z,2.99
2023-04-11T12:59:06.896Z,2.96
2023-04-11T13:00:06.870Z,2.67
2023-04-11T13:01:06.882Z,2.36
2023-04-11T13:02:06.986Z,3.05
2023-04-11T13:03:07.114Z,2.37
2023-04-11T13:04:07.064Z,2.46
2023-04-11T13:05:06.864Z,2.38
2023-04-11T13:06:06.850Z,2.82
2023-04-11T13:07:06.854Z,2.21
2023-04-11T13:08:06.844Z,2.73
2023-04-11T13:09:07.542Z,2.40
2023-04-11T13:10:06.806Z,2.65
2023-04-11T13:11:06.834Z,2.81
2023-04-11T13:12:06.782Z,2.55
2023-04-11T13:13:17.421Z,2.42
2023-04-11T13:14:07.783Z,2.73
2023-04-11T13:15:06.747Z,2.40
2023-04-11T13:16:06.869Z,2.39
2023-04-11T13:17:06.776Z,2.72
2023-04-11T13:18:06.864Z,2.63
2023-04-11T13:19:06.731Z,2.72